Time;durP1;ratioP1;P1;durP2;ratioP2;P2;SDS_P1;SDS_P2;PMS_P1;PMS_P2;Temp;Humidity;BMP_temperature;BMP_pressure;BME280_temperature;BME280_humidity;BME280_pressure;Samples;Min_cycle;Max_cycle;Signal;HPM_P1;HPM_P2
2023/05/29 00:00:42;;;;;;;15.40;1.88;;;;;;;-146.25;97.54;52124.91;2087568;28;36849;-68
2023/05/29 00:01:44;;;;;;;19.85;2.03;;;;;;;-146.25;96.76;52183.69;2087618;28;30942;-68
2023/05/29 00:02:45;;;;;;;17.85;1.45;;;;;;;-146.25;96.22;52108.66;2087274;28;28082;-68
2023/05/29 00:03:47;;;;;;;14.82;1.80;;;;;;;-146.25;96.58;52173.56;2087702;28;36718;-68
2023/05/29 00:04:50;;;;;;;13.30;1.50;;;;;;;-146.25;97.20;52153.28;2087581;28;33003;-68
2023/05/29 00:05:52;;;;;;;20.20;2.35;;;;;;;-146.25;96.83;52171.53;2088398;28;20038;-69
2023/05/29 00:06:55;;;;;;;17.00;1.73;;;;;;;-146.25;96.65;52197.88;2087155;28;35562;-68
2023/05/29 00:07:57;;;;;;;17.80;1.98;;;;;;;-146.25;96.61;52157.34;2088210;28;35905;-68
2023/05/29 00:08:58;;;;;;;15.77;1.50;;;;;;;-146.25;96.53;52167.47;2088107;28;20045;-69
2023/05/29 00:10:00;;;;;;;16.63;1.40;;;;;;;-146.25;95.86;52165.44;2087559;28;32922;-68
2023/05/29 00:11:02;;;;;;;23.42;2.65;;;;;;;-146.25;96.00;52199.91;2087793;28;27909;-69
2023/05/29 00:12:05;;;;;;;16.48;1.70;;;;;;;-146.25;95.97;52212.06;2087958;28;25791;-68
2023/05/29 00:13:07;;;;;;;16.55;1.45;;;;;;;-146.25;96.41;52145.16;2087356;28;36549;-68
2023/05/29 00:14:13;;;;;;;20.17;1.98;;;;;;;-146.25;96.67;52165.44;2087552;28;37884;-68
2023/05/29 00:15:15;;;;;;;15.00;1.58;;;;;;;-146.25;96.21;52159.34;2087658;28;31407;-68
2023/05/29 00:16:19;;;;;;;15.35;1.73;;;;;;;-146.25;96.64;52189.78;2088744;28;38402;-68
2023/05/29 00:17:21;;;;;;;19.88;2.28;;;;;;;-146.25;96.61;52139.09;2088509;28;34782;-69
2023/05/29 00:18:23;;;;;;;15.38;1.60;;;;;;;-146.25;95.84;52193.81;2089236;28;36731;-69
2023/05/29 00:19:24;;;;;;;17.75;1.50;;;;;;;-146.25;95.54;52179.63;2088433;28;34335;-68
2023/05/29 00:20:26;;;;;;;14.27;1.67;;;;;;;-146.25;96.26;52173.56;2089307;28;33087;-69
2023/05/29 00:21:28;;;;;;;18.63;1.88;;;;;;;-146.25;95.85;52149.22;2088649;28;33981;-69
2023/05/29 00:22:30;;;;;;;14.52;1.63;;;;;;;-146.25;96.82;52133.00;2089108;28;34989;-68
2023/05/29 00:23:31;;;;;;;15.07;1.40;;;;;;;-146.25;96.74;52169.50;2088522;28;37100;-68
2023/05/29 00:24:33;;;;;;;14.13;1.70;;;;;;;-146.25;95.92;52206.00;2088595;28;35772;-68
2023/05/29 00:25:35;;;;;;;13.90;1.92;;;;;;;-146.25;95.69;52159.34;2088687;28;32810;-68
2023/05/29 00:26:37;;;;;;;18.08;1.98;;;;;;;-146.25;95.72;52153.28;2089015;28;32523;-68
2023/05/29 00:27:38;;;;;;;17.75;1.77;;;;;;;-146.25;96.41;52197.88;2088722;28;32422;-67
2023/05/29 00:28:40;;;;;;;18.75;1.85;;;;;;;-146.25;96.56;52159.34;2089181;28;20033;-69
2023/05/29 00:29:42;;;;;;;12.95;1.80;;;;;;;-146.25;96.51;52153.28;2089161;28;22078;-67
2023/05/29 00:30:44;;;;;;;18.73;1.67;;;;;;;-146.25;96.48;52122.88;2089626;28;29800;-66
2023/05/29 00:31:45;;;;;;;16.25;1.65;;;;;;;-146.25;96.53;52177.59;2088842;28;27829;-68
2023/05/29 00:32:47;;;;;;;12.73;1.58;;;;;;;-146.25;96.26;52222.22;2089649;28;20871;-68
2023/05/29 00:33:49;;;;;;;19.95;1.92;;;;;;;-146.25;97.19;52161.38;2089134;28;25600;-68
2023/05/29 00:34:51;;;;;;;16.50;2.13;;;;;;;-146.25;97.04;52230.31;2097299;28;20037;-68
2023/05/29 00:35:53;;;;;;;16.85;1.83;;;;;;;-146.25;96.83;52147.19;2096818;28;20091;-69
2023/05/29 00:36:55;;;;;;;14.02;1.80;;;;;;;-146.25;96.10;52159.34;2088413;28;28279;-69
2023/05/29 00:38:00;;;;;;;19.23;1.58;;;;;;;-146.25;96.54;52185.72;2089377;28;20034;-68
2023/05/29 00:39:02;;;;;;;17.00;1.63;;;;;;;-146.25;96.44;52171.53;2096743;28;30226;-69
2023/05/29 00:40:05;;;;;;;15.18;1.90;;;;;;;-146.25;96.73;52169.50;2095888;28;23109;-68
2023/05/29 00:41:07;;;;;;;16.95;1.92;;;;;;;-146.25;96.06;52165.44;2089747;28;20037;-68
2023/05/29 00:42:11;;;;;;;16.05;2.28;;;;;;;-146.25;96.50;52143.13;2080135;28;20145;-69
2023/05/29 00:43:13;;;;;;;15.25;1.95;;;;;;;-146.25;96.61;52145.16;2088332;28;23987;-68
2023/05/29 00:44:15;;;;;;;19.83;1.77;;;;;;;-146.25;96.80;52147.19;2096318;28;22649;-67
2023/05/29 00:45:20;;;;;;;20.17;2.38;;;;;;;-146.25;96.81;52201.94;2096727;28;30403;-68
2023/05/29 00:46:22;;;;;;;14.00;1.83;;;;;;;-146.25;96.56;52149.22;2088196;28;23599;-69
2023/05/29 00:47:25;;;;;;;10.00;1.50;;;;;;;-146.25;96.94;52169.50;2089587;28;20042;-68
2023/05/29 00:48:26;;;;;;;13.02;1.60;;;;;;;-146.25;96.10;52157.34;2096621;28;26687;-68
2023/05/29 00:49:28;;;;;;;20.40;2.08;;;;;;;-146.25;96.24;52169.50;2096716;28;23838;-68
2023/05/29 00:50:30;;;;;;;18.50;1.63;;;;;;;-146.25;95.89;52201.94;2088114;28;35941;-68
2023/05/29 00:51:32;;;;;;;17.25;1.67;;;;;;;-146.25;95.57;52153.28;2088976;28;27843;-69
2023/05/29 00:52:37;;;;;;;17.85;2.28;;;;;;;-146.25;96.05;52108.66;2089203;28;20175;-67
2023/05/29 00:53:42;;;;;;;16.35;1.52;;;;;;;-146.25;95.73;52169.50;2096350;28;31316;-68
2023/05/29 00:54:45;;;;;;;16.33;1.73;;;;;;;-146.25;96.29;52183.69;2095950;28;20140;-68
2023/05/29 00:55:47;;;;;;;14.32;1.58;;;;;;;-146.25;95.69;52161.38;2088683;28;20043;-68
2023/05/29 00:56:49;;;;;;;9.85;1.33;;;;;;;-146.25;95.71;52171.53;2080065;28;20042;-68
2023/05/29 00:57:51;;;;;;;30.02;2.78;;;;;;;-146.25;95.69;52149.22;2080480;28;22497;-68
2023/05/29 00:58:53;;;;;;;19.17;2.28;;;;;;;-146.25;95.73;52165.44;2088460;28;34950;-68
2023/05/29 00:59:56;;;;;;;15.88;1.75;;;;;;;-146.25;96.02;52165.44;2089238;28;24919;-68
2023/05/29 01:00:58;;;;;;;16.45;1.65;;;;;;;-146.25;95.35;52189.78;2088967;28;20045;-68
2023/05/29 01:02:02;;;;;;;16.40;1.63;;;;;;;-146.25;95.55;52155.31;2096809;28;20041;-68
2023/05/29 01:03:04;;;;;;;11.85;1.65;;;;;;;-146.25;94.75;52157.34;2096134;28;20044;-68
2023/05/29 01:04:06;;;;;;;20.83;2.20;;;;;;;-146.25;94.79;52175.56;2096504;28;36301;-68
2023/05/29 01:05:10;;;;;;;18.30;2.05;;;;;;;-146.25;94.73;52171.53;2096593;28;20045;-68
2023/05/29 01:06:12;;;;;;;19.48;1.63;;;;;;;-146.25;95.27;52201.94;2088325;28;27365;-68
2023/05/29 01:07:15;;;;;;;14.60;1.95;;;;;;;-146.25;95.31;52161.38;2087963;28;28891;-68
2023/05/29 01:08:16;;;;;;;13.93;1.58;;;;;;;-146.25;95.46;52173.56;2089566;28;20072;-68
2023/05/29 01:09:18;;;;;;;14.77;1.73;;;;;;;-146.25;95.87;52185.72;2087760;28;28873;-68
2023/05/29 01:10:25;;;;;;;18.95;2.47;;;;;;;-146.25;95.13;52177.59;2080124;28;25301;-68
2023/05/29 01:12:02;;;;;;;13.57;1.73;;;;;;;-146.25;95.42;52171.53;2080595;28;26597;-68
2023/05/29 01:13:12;;;;;;;16.83;1.77;;;;;;;-146.25;95.39;52165.44;2080118;28;20038;-67
2023/05/29 01:14:28;;;;;;;16.10;1.70;;;;;;;-146.25;94.71;52165.44;2081451;28;22061;-68
2023/05/29 01:15:46;;;;;;;14.32;1.23;;;;;;;-146.25;94.46;52161.38;2096297;28;35763;-68
2023/05/29 01:17:03;;;;;;;19.40;1.70;;;;;;;-146.25;94.90;52153.28;2093556;28;20042;-68
2023/05/29 01:18:51;;;;;;;14.23;1.83;;;;;;;-146.25;95.37;52185.72;2096450;28;20858;-68
2023/05/29 01:20:25;;;;;;;16.00;1.45;;;;;;;-146.25;95.12;52147.19;2087892;28;30366;-68
2023/05/29 01:22:03;;;;;;;15.55;1.42;;;;;;;-146.25;95.61;52145.16;2079952;28;29938;-68
2023/05/29 01:23:22;;;;;;;15.00;1.38;;;;;;;-146.25;95.26;52161.38;2087921;28;32149;-68
2023/05/29 01:25:00;;;;;;;15.38;1.60;;;;;;;-146.25;95.23;52151.25;2088558;28;20053;-68
2023/05/29 01:26:40;;;;;;;16.92;1.50;;;;;;;-146.25;95.34;52161.38;2088394;28;20881;-68
2023/05/29 01:27:47;;;;;;;;;;;;;;;-146.25;96.09;52137.06;2096975;28;20045;-68
2023/05/29 01:28:56;;;;;;;20.85;2.15;;;;;;;-146.25;96.08;52149.22;2096543;28;20699;-68
2023/05/29 01:30:01;;;;;;;17.40;1.33;;;;;;;-146.25;95.64;52141.13;2087727;28;32779;-68
2023/05/29 01:31:04;;;;;;;20.42;2.13;;;;;;;-146.25;95.54;52163.41;2080323;28;20120;-68
2023/05/29 01:32:06;;;;;;;16.88;1.73;;;;;;;-146.25;95.13;52153.28;2087943;28;24503;-68
2023/05/29 01:33:09;;;;;;;18.38;2.03;;;;;;;-146.25;95.91;52159.34;2087252;28;37464;-68
2023/05/29 01:34:12;;;;;;;18.08;1.75;;;;;;;-146.25;96.10;52173.56;2087546;28;31019;-68
2023/05/29 01:35:17;;;;;;;14.55;1.90;;;;;;;-146.25;96.40;52145.16;2095844;28;20104;-68
2023/05/29 01:36:20;;;;;;;16.35;1.70;;;;;;;-146.25;96.40;52179.63;2087985;28;20045;-67
2023/05/29 01:37:23;;;;;;;15.05;1.98;;;;;;;-146.25;96.12;52197.88;2089150;28;20111;-68
2023/05/29 01:38:25;;;;;;;20.52;1.80;;;;;;;-146.25;96.22;52179.63;2088085;28;36481;-68
2023/05/29 01:39:29;;;;;;;18.70;2.35;;;;;;;-146.25;95.97;52161.38;2088534;28;33290;-68
2023/05/29 01:40:32;;;;;;;15.10;1.50;;;;;;;-146.25;96.21;52161.38;2089134;28;20034;-68
2023/05/29 01:41:35;;;;;;;14.70;1.77;;;;;;;-146.25;96.17;52165.44;2088634;28;30559;-68
2023/05/29 01:42:37;;;;;;;19.13;1.63;;;;;;;-146.25;96.31;52149.22;2088694;28;23322;-67
2023/05/29 01:43:39;;;;;;;13.98;1.33;;;;;;;-146.25;96.16;52183.69;2088714;28;26073;-68
2023/05/29 01:44:42;;;;;;;16.15;1.85;;;;;;;-146.25;96.44;52179.63;2096155;28;28625;-67
2023/05/29 01:45:44;;;;;;;15.05;1.98;;;;;;;-146.25;96.60;52157.34;2096496;28;20912;-67
2023/05/29 01:46:48;;;;;;;14.10;1.60;;;;;;;-146.25;96.46;52149.22;2096395;28;20949;-68
2023/05/29 01:47:50;;;;;;;14.70;1.50;;;;;;;-146.25;96.73;52141.13;2087911;28;20038;-67
2023/05/29 01:48:55;;;;;;;19.50;1.98;;;;;;;-146.25;96.20;52185.72;2088041;28;20195;-68
2023/05/29 01:49:57;;;;;;;25.08;2.10;;;;;;;-146.25;96.61;52181.66;2088631;28;20033;-68
2023/05/29 01:50:59;;;;;;;19.48;2.30;;;;;;;-146.25;96.84;52161.38;2096317;28;21692;-68
2023/05/29 01:52:04;;;;;;;14.60;1.33;;;;;;;-146.25;96.63;52189.78;2096100;28;20045;-68
2023/05/29 01:53:06;;;;;;;15.15;1.52;;;;;;;-146.25;96.81;52185.72;2096093;28;20146;-68
2023/05/29 01:54:10;;;;;;;19.73;1.52;;;;;;;-146.25;97.36;52153.28;2088381;28;20037;-68
2023/05/29 01:55:12;;;;;;;20.48;1.88;;;;;;;-146.25;97.50;52171.53;2079188;28;26549;-68
2023/05/29 01:56:17;;;;;;;23.00;1.95;;;;;;;-146.25;97.09;52183.69;2080123;28;27965;-68
2023/05/29 01:57:20;;;;;;;13.65;1.65;;;;;;;-146.25;96.63;52169.50;2096160;28;20199;-68
2023/05/29 01:58:23;;;;;;;17.85;1.42;;;;;;;-146.25;96.94;52181.66;2088327;28;20042;-68
2023/05/29 01:59:26;;;;;;;16.95;1.88;;;;;;;-146.25;96.67;52169.50;2088155;28;20081;-68
2023/05/29 02:00:29;;;;;;;14.98;1.50;;;;;;;-146.25;96.84;52155.31;2094027;28;20262;-68
2023/05/29 02:01:31;;;;;;;13.60;1.45;;;;;;;-146.25;96.54;52216.13;2080001;28;25683;-67
2023/05/29 02:02:38;;;;;;;15.88;1.70;;;;;;;-146.25;97.68;52163.41;2080800;28;20916;-67
2023/05/29 02:03:40;;;;;;;16.77;2.13;;;;;;;-146.25;97.73;52153.28;2087720;28;31416;-68
2023/05/29 02:04:42;;;;;;;19.60;2.03;;;;;;;-146.25;97.25;52203.97;2079417;28;31108;-68
2023/05/29 02:05:44;;;;;;;18.55;2.05;;;;;;;-146.25;97.46;52203.97;2071250;28;30605;-68
2023/05/29 02:06:46;;;;;;;12.60;1.80;;;;;;;-146.25;97.95;52149.22;2080329;28;29469;-67
2023/05/29 02:07:48;;;;;;;17.85;2.10;;;;;;;-146.25;97.96;52155.31;2071495;28;20924;-68
2023/05/29 02:08:50;;;;;;;20.35;2.45;;;;;;;-146.25;98.14;52175.56;2071946;28;20939;-67
2023/05/29 02:09:54;;;;;;;18.70;1.88;;;;;;;-146.25;97.31;52157.34;2070478;28;31638;-68
2023/05/29 02:10:56;;;;;;;13.85;1.45;;;;;;;-146.25;97.58;52173.56;2071593;28;20046;-67
2023/05/29 02:12:01;;;;;;;15.95;1.88;;;;;;;-146.25;98.14;52193.81;2071752;28;20157;-68
2023/05/29 02:13:03;;;;;;;14.65;1.60;;;;;;;-146.25;98.40;52208.03;2071692;28;20042;-68
2023/05/29 02:14:05;;;;;;;15.93;1.88;;;;;;;-146.25;97.94;52157.34;2070786;28;40045;-68
2023/05/29 02:15:08;;;;;;;21.38;2.00;;;;;;;-146.25;98.50;52185.72;2072032;28;20176;-67
2023/05/29 02:16:10;;;;;;;16.80;2.28;;;;;;;-146.25;98.55;52201.94;2071610;28;20042;-68
2023/05/29 02:17:14;;;;;;;16.17;1.83;;;;;;;-146.25;98.63;52189.78;2080082;28;20435;-68
2023/05/29 02:18:20;;;;;;;16.73;1.90;;;;;;;-146.25;98.81;52137.06;2087327;28;20867;-68
2023/05/29 02:19:25;;;;;;;12.55;1.50;;;;;;;-146.25;99.16;52157.34;2087822;28;20038;-68
2023/05/29 02:20:27;;;;;;;14.95;1.50;;;;;;;-146.25;99.52;52130.97;2086900;28;20185;-68
2023/05/29 02:21:28;;;;;;;19.00;1.92;;;;;;;-146.25;98.65;52157.34;2079995;28;20042;-68
2023/05/29 02:22:30;;;;;;;19.85;2.08;;;;;;;-146.25;99.22;52203.97;2087534;28;20084;-67
2023/05/29 02:23:33;;;;;;;17.58;2.10;;;;;;;-146.25;99.17;52173.56;2088014;28;20096;-68
2023/05/29 02:24:34;;;;;;;21.17;1.73;;;;;;;-146.25;99.05;52169.50;2071006;28;24283;-68
2023/05/29 02:25:36;;;;;;;13.52;1.63;;;;;;;-146.25;98.68;52169.50;2079471;28;20038;-68
2023/05/29 02:26:40;;;;;;;16.48;2.42;;;;;;;-146.25;99.07;52169.50;2087926;28;20046;-68
2023/05/29 02:27:42;;;;;;;15.40;1.60;;;;;;;-146.25;99.13;52157.34;2079947;28;20049;-68
2023/05/29 02:28:44;;;;;;;17.65;1.85;;;;;;;-146.25;98.84;52181.66;2079503;28;25672;-68
2023/05/29 02:29:46;;;;;;;16.70;1.58;;;;;;;-146.25;99.09;52185.72;2080323;28;23332;-68
2023/05/29 02:30:48;;;;;;;15.13;1.55;;;;;;;-146.25;98.91;52153.28;2071366;28;20184;-68
2023/05/29 02:31:50;;;;;;;23.90;2.40;;;;;;;-146.25;99.13;52173.56;2071438;28;27744;-69
2023/05/29 02:32:52;;;;;;;22.40;1.83;;;;;;;-146.25;98.79;52157.34;2070650;28;31244;-68
2023/05/29 02:33:54;;;;;;;14.48;1.90;;;;;;;-146.25;99.01;52177.59;2063507;28;20912;-68
2023/05/29 02:34:57;;;;;;;19.70;2.17;;;;;;;-146.25;99.36;52191.81;2079332;28;20050;-68
2023/05/29 02:35:59;;;;;;;13.80;2.08;;;;;;;-146.25;99.31;52161.38;2087949;28;20042;-68
2023/05/29 02:37:01;;;;;;;19.38;2.17;;;;;;;-146.25;98.94;52181.66;2079903;28;27466;-68
2023/05/29 02:38:03;;;;;;;15.43;1.50;;;;;;;-146.25;99.08;52189.78;2078868;28;34507;-68
2023/05/29 02:39:05;;;;;;;13.13;1.35;;;;;;;-146.25;99.69;52163.41;2087202;28;20033;-67
2023/05/29 02:40:10;;;;;;;17.88;1.67;;;;;;;-146.25;99.61;52155.31;2086750;28;35477;-69
2023/05/29 02:41:12;;;;;;;17.38;1.60;;;;;;;-146.25;99.12;52143.13;2071226;28;20820;-68
2023/05/29 02:42:16;;;;;;;20.38;1.98;;;;;;;-146.25;99.27;52169.50;2071020;28;25932;-68
2023/05/29 02:43:18;;;;;;;13.90;1.85;;;;;;;-146.25;99.16;52177.59;2078260;28;35182;-68
2023/05/29 02:44:20;;;;;;;16.60;1.77;;;;;;;-146.25;98.80;52147.19;2071113;28;27552;-68
2023/05/29 02:45:21;;;;;;;16.15;1.73;;;;;;;-146.25;98.75;52193.81;2070585;28;26846;-68
2023/05/29 02:46:23;;;;;;;17.10;2.00;;;;;;;-146.25;99.17;52175.56;2071418;28;27188;-68
2023/05/29 02:47:25;;;;;;;23.13;2.30;;;;;;;-146.25;99.37;52167.47;2070829;28;29516;-68
2023/05/29 02:48:29;;;;;;;14.02;1.88;;;;;;;-146.25;98.82;52165.44;2079737;28;27128;-68
2023/05/29 02:49:30;;;;;;;19.30;1.65;;;;;;;-146.25;98.76;52122.88;2079945;28;20053;-68
2023/05/29 02:50:32;;;;;;;20.25;1.80;;;;;;;-146.25;98.95;52165.44;2079873;28;20865;-68
2023/05/29 02:51:34;;;;;;;20.05;1.80;;;;;;;-146.25;99.17;52175.56;2079229;28;20376;-68
2023/05/29 02:52:36;;;;;;;11.77;1.42;;;;;;;-146.25;99.10;52185.72;2080512;28;20046;-68
2023/05/29 02:53:41;;;;;;;22.75;2.28;;;;;;;-146.25;99.41;52167.47;2087629;28;20160;-68
2023/05/29 02:54:45;;;;;;;19.80;1.63;;;;;;;-146.25;99.28;52206.00;2079264;28;20045;-68
2023/05/29 02:55:49;;;;;;;23.15;1.92;;;;;;;-146.25;99.30;52139.09;2071309;28;28391;-68
2023/05/29 02:56:50;;;;;;;21.50;2.17;;;;;;;-146.25;99.21;52181.66;2079678;28;31364;-68
2023/05/29 02:57:55;;;;;;;16.13;1.70;;;;;;;-146.25;98.94;52181.66;2080408;28;20812;-68
2023/05/29 02:58:56;;;;;;;20.83;2.17;;;;;;;-146.25;99.43;52197.88;2079693;28;23488;-68
2023/05/29 02:59:59;;;;;;;15.30;1.55;;;;;;;-146.25;98.81;52177.59;2079033;28;26804;-68
2023/05/29 03:01:03;;;;;;;15.98;2.30;;;;;;;-146.25;98.96;52153.28;2079082;28;26053;-68
2023/05/29 03:02:05;;;;;;;18.30;2.20;;;;;;;-146.25;99.16;52246.53;2079563;28;26616;-68
2023/05/29 03:03:08;;;;;;;19.50;1.80;;;;;;;-146.25;99.23;52185.72;2080024;28;20030;-68
2023/05/29 03:04:13;;;;;;;20.45;2.45;;;;;;;-146.25;99.22;52193.81;2071231;28;20891;-68
2023/05/29 03:05:16;;;;;;;16.05;1.88;;;;;;;-146.25;99.02;52197.88;2079493;28;20034;-67
2023/05/29 03:06:18;;;;;;;16.17;1.88;;;;;;;-146.25;99.29;52177.59;2078762;28;29186;-68
2023/05/29 03:07:20;;;;;;;12.40;1.60;;;;;;;-146.25;99.65;52193.81;2071127;28;28532;-67
2023/05/29 03:08:22;;;;;;;22.92;2.00;;;;;;;-146.25;99.65;52171.53;2080076;28;20050;-68
2023/05/29 03:09:23;;;;;;;15.88;1.88;;;;;;;-146.25;99.40;52181.66;2080453;28;20140;-67
2023/05/29 03:10:25;;;;;;;22.48;2.20;;;;;;;-146.25;99.95;52169.50;2078931;28;27640;-68
2023/05/29 03:11:28;;;;;;;17.52;2.17;;;;;;;-146.25;99.68;52173.56;2071819;28;20046;-68
2023/05/29 03:12:30;;;;;;;21.35;1.88;;;;;;;-146.25;99.47;52179.63;2070673;28;28160;-68
2023/05/29 03:13:34;;;;;;;11.57;1.58;;;;;;;-146.25;99.13;52153.28;2087639;28;28589;-67
2023/05/29 03:14:40;;;;;;;13.35;1.48;;;;;;;-146.25;99.37;52179.63;2078317;28;20041;-68
2023/05/29 03:15:47;;;;;;;14.07;1.30;;;;;;;-146.25;99.30;52157.34;2080166;28;20038;-68
2023/05/29 03:16:50;;;;;;;14.45;2.03;;;;;;;-146.25;99.32;52185.72;2087233;28;20034;-68
2023/05/29 03:17:52;;;;;;;16.70;2.13;;;;;;;-146.25;99.60;52173.56;2071462;28;20054;-68
2023/05/29 03:18:59;;;;;;;15.20;2.00;;;;;;;-146.25;100.00;52181.66;2080080;28;20038;-68
2023/05/29 03:20:05;;;;;;;13.45;1.55;;;;;;;-146.25;100.00;52193.81;2087555;28;20147;-67
2023/05/29 03:21:08;;;;;;;18.60;1.75;;;;;;;-146.25;100.00;52155.31;2080059;28;27767;-68
2023/05/29 03:22:10;;;;;;;12.55;1.75;;;;;;;-146.25;100.00;52177.59;2087659;28;20189;-68
2023/05/29 03:23:13;;;;;;;13.00;1.35;;;;;;;-146.25;100.00;52177.59;2087401;28;20053;-68
2023/05/29 03:24:15;;;;;;;14.73;1.40;;;;;;;-146.25;100.00;52201.94;2079042;28;35847;-68
2023/05/29 03:25:19;;;;;;;17.50;1.77;;;;;;;-146.25;100.00;52197.88;2070563;28;20034;-67
2023/05/29 03:26:21;;;;;;;13.70;1.70;;;;;;;-146.25;100.00;52181.66;2079639;28;20161;-68
2023/05/29 03:27:27;;;;;;;14.75;1.70;;;;;;;-146.25;100.00;52173.56;2087004;28;20991;-68
2023/05/29 03:28:36;;;;;;;18.55;2.40;;;;;;;-146.25;100.00;52173.56;2087275;28;20054;-68
2023/05/29 03:29:40;;;;;;;16.02;1.58;;;;;;;-146.25;100.00;52181.66;2078994;28;20050;-66
2023/05/29 03:30:42;;;;;;;12.02;1.35;;;;;;;-146.25;100.00;52167.47;2079194;28;20117;-68
2023/05/29 03:31:48;;;;;;;16.13;2.05;;;;;;;-146.25;100.00;52167.47;2087250;28;21157;-67
2023/05/29 03:32:56;;;;;;;16.17;1.45;;;;;;;-146.25;100.00;52187.75;2087237;28;21108;-68
2023/05/29 03:34:16;;;;;;;13.80;1.35;;;;;;;-146.25;100.00;52206.00;2082835;28;20042;-68
2023/05/29 03:35:25;;;;;;;12.60;1.55;;;;;;;-146.25;100.00;52203.97;2064381;28;20050;-68
2023/05/29 03:36:28;;;;;;;19.60;2.20;;;;;;;-146.25;100.00;52169.50;2072675;28;20934;-68
2023/05/29 03:37:30;;;;;;;16.42;1.60;;;;;;;-146.25;100.00;52191.81;2070623;28;20046;-67
2023/05/29 03:38:32;;;;;;;17.45;2.20;;;;;;;-146.25;100.00;52183.69;2078878;28;20258;-67
2023/05/29 03:39:36;;;;;;;17.13;1.85;;;;;;;-146.25;100.00;52163.41;2079168;28;20045;-67
2023/05/29 03:40:40;;;;;;;17.08;1.63;;;;;;;-146.25;100.00;52153.28;2079003;28;20042;-68
2023/05/29 03:41:42;;;;;;;17.10;2.08;;;;;;;-146.25;100.00;52179.63;2086596;28;20162;-68
2023/05/29 03:42:44;;;;;;;17.55;1.63;;;;;;;-146.25;100.00;52189.78;2070606;28;20042;-68
2023/05/29 03:43:48;;;;;;;17.88;2.13;;;;;;;-146.25;100.00;52187.75;2079061;28;20129;-68
2023/05/29 03:44:52;;;;;;;12.15;1.35;;;;;;;-146.25;99.87;52143.13;2078438;28;20111;-67
2023/05/29 03:45:56;;;;;;;18.55;1.88;;;;;;;-146.25;100.00;52222.22;2070981;28;20047;-68
2023/05/29 03:47:02;;;;;;;15.07;1.48;;;;;;;-146.25;100.00;52185.72;2087360;28;21022;-68
2023/05/29 03:48:08;;;;;;;13.77;1.90;;;;;;;-146.25;99.97;52195.84;2078673;28;20168;-68
2023/05/29 03:49:11;;;;;;;12.80;2.03;;;;;;;-146.25;99.80;52183.69;2071238;28;20206;-68
2023/05/29 03:50:15;;;;;;;16.25;2.03;;;;;;;-146.25;99.55;52145.16;2072163;28;20041;-68
2023/05/29 03:51:18;;;;;;;14.05;1.88;;;;;;;-146.25;98.95;52173.56;2073057;28;20902;-69
2023/05/29 03:52:20;;;;;;;21.85;1.88;;;;;;;-146.25;99.31;52189.78;2080584;28;21028;-69
2023/05/29 03:53:24;;;;;;;16.73;2.38;;;;;;;-146.25;98.97;52177.59;2080402;28;20037;-69
2023/05/29 03:54:27;;;;;;;16.35;1.83;;;;;;;-146.25;98.31;52187.75;2080373;28;20053;-68
2023/05/29 03:55:29;;;;;;;17.67;1.83;;;;;;;-146.25;98.25;52212.06;2080432;28;20038;-68
2023/05/29 03:56:31;;;;;;;13.95;1.55;;;;;;;-146.25;97.96;52171.53;2080331;28;20168;-68
2023/05/29 03:57:33;;;;;;;17.13;1.85;;;;;;;-146.25;97.83;52199.91;2072966;28;20192;-68
2023/05/29 03:58:36;;;;;;;17.48;2.20;;;;;;;-146.25;97.49;52185.72;2080577;28;20077;-68
2023/05/29 03:59:40;;;;;;;16.27;1.98;;;;;;;-146.25;97.69;52187.75;2088766;28;20051;-68
2023/05/29 04:00:42;;;;;;;14.43;2.00;;;;;;;-146.25;97.37;52173.56;2080640;28;20097;-68
2023/05/29 04:01:44;;;;;;;16.95;1.60;;;;;;;-146.25;96.46;52165.44;2072571;28;20058;-68
2023/05/29 04:02:48;;;;;;;13.75;1.30;;;;;;;-146.25;96.64;52193.81;2081102;28;20045;-68
2023/05/29 04:03:53;;;;;;;16.52;1.80;;;;;;;-146.25;96.03;52206.00;2080269;28;20150;-68
2023/05/29 04:04:55;;;;;;;12.60;1.30;;;;;;;-146.25;95.40;52175.56;2072451;28;20675;-68
2023/05/29 04:05:57;;;;;;;18.83;1.63;;;;;;;-146.25;94.78;52171.53;2080874;28;24996;-68
2023/05/29 04:06:58;;;;;;;17.95;1.70;;;;;;;-146.25;94.05;52185.72;2072460;28;20165;-69
2023/05/29 04:08:04;;;;;;;17.35;2.03;;;;;;;-146.25;93.17;52206.00;2072212;28;20108;-68
2023/05/29 04:09:16;;;;;;;15.18;2.08;;;;;;;-146.25;92.89;52151.25;2089048;28;20050;-68
2023/05/29 04:10:18;;;;;;;12.23;1.50;;;;;;;-146.25;92.68;52189.78;2080262;28;20614;-68
2023/05/29 04:11:22;;;;;;;11.52;1.65;;;;;;;-146.25;90.88;52169.50;2072189;28;26212;-68
2023/05/29 04:12:23;;;;;;;14.73;1.50;;;;;;;-146.25;91.08;52197.88;2080841;28;27338;-68
2023/05/29 04:13:25;;;;;;;9.93;1.42;;;;;;;-146.25;90.09;52220.19;2072455;28;20120;-68
2023/05/29 04:14:27;;;;;;;9.85;1.42;;;;;;;-146.25;88.59;52179.63;2072281;28;20124;-70
2023/05/29 04:15:35;;;;;;;14.13;1.40;;;;;;;-146.25;88.34;52230.31;2080527;28;20092;-68
2023/05/29 04:16:40;;;;;;;12.38;1.50;;;;;;;-146.25;87.24;52212.06;2088671;28;20049;-67
2023/05/29 04:17:42;;;;;;;13.57;1.67;;;;;;;-146.25;85.20;52169.50;2088470;28;20120;-68
2023/05/29 04:18:43;;;;;;;15.40;1.75;;;;;;;-146.25;83.81;52181.66;2081273;28;20818;-68
2023/05/29 04:19:45;;;;;;;12.98;1.65;;;;;;;-146.25;82.82;52169.50;2072635;28;20062;-68
2023/05/29 04:20:50;;;;;;;12.63;1.90;;;;;;;-146.25;81.33;52185.72;2080599;28;20049;-68
2023/05/29 04:21:52;;;;;;;8.45;1.48;;;;;;;-146.25;80.16;52163.41;2080031;28;20131;-68
2023/05/29 04:22:54;;;;;;;11.65;1.52;;;;;;;-146.25;80.92;52222.22;2080722;28;20135;-68
2023/05/29 04:23:56;;;;;;;14.20;1.65;;;;;;;-146.25;77.56;52206.00;2088382;28;20045;-68
2023/05/29 04:24:58;;;;;;;12.25;1.38;;;;;;;-146.25;79.31;52193.81;2080254;28;20443;-68
2023/05/29 04:26:02;;;;;;;13.07;1.90;;;;;;;-146.25;77.83;52159.34;2072207;28;20046;-68
2023/05/29 04:27:05;;;;;;;9.55;1.25;;;;;;;-146.25;76.55;52185.72;2072863;28;20124;-68
2023/05/29 04:28:11;;;;;;;13.45;1.70;;;;;;;-146.25;75.90;52206.00;2088878;28;20901;-68
2023/05/29 04:29:13;;;;;;;10.30;1.67;;;;;;;-146.25;74.58;52193.81;2088200;28;20048;-68
2023/05/29 04:30:16;;;;;;;16.60;1.85;;;;;;;-146.25;71.65;52181.66;2072475;28;21086;-68
2023/05/29 04:31:22;;;;;;;9.55;1.05;;;;;;;-146.25;72.31;52210.03;2080414;28;20110;-68
2023/05/29 04:32:24;;;;;;;11.13;1.88;;;;;;;-146.25;68.20;52222.22;2088718;28;20042;-69
2023/05/29 04:33:28;;;;;;;9.88;1.80;;;;;;;-146.25;66.40;52179.63;2072215;28;20058;-68
2023/05/29 04:34:30;;;;;;;12.85;1.92;;;;;;;-146.25;66.17;52175.56;2080968;28;20049;-68
2023/05/29 04:35:32;;;;;;;9.30;1.55;;;;;;;-146.25;65.06;52197.88;2088226;28;20938;-68
2023/05/29 04:36:40;;;;;;;14.95;1.75;;;;;;;-146.25;63.95;52159.34;2072559;28;20120;-68
2023/05/29 04:37:45;;;;;;;11.93;1.45;;;;;;;-146.25;64.45;52177.59;2081139;28;20064;-68
2023/05/29 04:38:50;;;;;;;11.57;1.58;;;;;;;-146.25;64.26;52153.28;2088851;28;20175;-65
2023/05/29 04:39:54;;;;;;;12.32;1.75;;;;;;;-146.25;62.50;52143.13;2072024;28;20050;-66
2023/05/29 04:41:02;;;;;;;8.20;1.35;;;;;;;-146.25;60.81;52165.44;2073236;28;20043;-69
2023/05/29 04:42:05;;;;;;;12.02;1.52;;;;;;;-146.25;59.80;52189.78;2079994;28;23337;-67
2023/05/29 04:43:09;;;;;;;9.40;1.52;;;;;;;-146.25;59.81;52189.78;2080752;28;20042;-68
2023/05/29 04:44:29;;;;;;;7.22;1.25;;;;;;;-146.25;57.89;52163.41;2078086;28;20042;-68
2023/05/29 04:45:31;;;;;;;7.78;1.25;;;;;;;-146.25;58.67;52185.72;2080541;28;20046;-67
2023/05/29 04:46:34;;;;;;;11.82;1.85;;;;;;;-146.25;56.37;52216.13;2080215;28;20172;-67
2023/05/29 04:47:43;;;;;;;11.20;1.52;;;;;;;-146.25;56.17;52222.22;2072450;28;20022;-67
2023/05/29 04:48:46;;;;;;;10.18;1.30;;;;;;;-146.25;58.67;52155.31;2088606;28;20041;-67
2023/05/29 04:49:49;;;;;;;11.23;1.75;;;;;;;-146.25;56.31;52143.13;2088230;28;21927;-68
2023/05/29 04:50:50;;;;;;;12.02;1.55;;;;;;;-146.25;55.45;52163.41;2080217;28;20834;-67
2023/05/29 04:51:52;;;;;;;12.38;1.80;;;;;;;-146.25;56.24;52189.78;2072011;28;20058;-67